createdAt,value
2024-02-17T00:00:40.172Z,10.32
2024-02-17T00:03:13.613Z,10.45
2024-02-17T00:05:47.137Z,11.35
2024-02-17T00:08:16.207Z,10.35
2024-02-17T00:10:45.177Z,9.90
2024-02-17T00:13:13.924Z,10.73
2024-02-17T00:15:56.911Z,10.93
2024-02-17T00:18:30.230Z,10.27
2024-02-17T00:21:07.447Z,10.02
2024-02-17T00:24:01.358Z,9.75
2024-02-17T00:26:34.912Z,9.57
2024-02-17T00:29:09.135Z,9.73
2024-02-17T00:31:39.665Z,10.52
2024-02-17T00:34:33.484Z,9.90
2024-02-17T00:37:04.380Z,10.02
2024-02-17T00:39:36.096Z,10.82
2024-02-17T00:42:10.662Z,9.60
2024-02-17T00:44:39.885Z,10.48
2024-02-17T00:47:09.808Z,9.90
2024-02-17T00:49:38.757Z,9.82
2024-02-17T00:52:08.530Z,10.20
2024-02-17T00:55:14.522Z,9.88
2024-02-17T00:57:42.923Z,9.15
2024-02-17T01:00:13.058Z,9.27
2024-02-17T01:02:43.101Z,9.75
2024-02-17T01:05:13.454Z,9.80
2024-02-17T01:07:42.380Z,10.07
2024-02-17T01:10:11.460Z,9.00
2024-02-17T01:12:40.228Z,10.02
2024-02-17T01:15:10.803Z,9.50
2024-02-17T01:17:39.397Z,9.23
2024-02-17T01:20:11.536Z,10.32
2024-02-17T01:22:40.329Z,9.85
2024-02-17T01:25:12.881Z,9.75
2024-02-17T01:27:42.037Z,9.43
2024-02-17T01:30:11.802Z,10.35
2024-02-17T01:32:41.971Z,9.15
2024-02-17T01:35:14.726Z,11.25
2024-02-17T01:37:45.530Z,10.00
2024-02-17T01:40:20.697Z,9.90
2024-02-17T01:42:52.874Z,10.60
2024-02-17T01:45:22.060Z,9.50
2024-02-17T01:47:53.827Z,10.38
2024-02-17T01:50:27.555Z,10.57
2024-02-17T01:52:57.436Z,10.15
2024-02-17T01:55:44.829Z,10.35
2024-02-17T01:58:13.776Z,11.13
2024-02-17T02:00:43.549Z,10.45
2024-02-17T02:03:14.997Z,11.32
2024-02-17T02:05:45.829Z,10.02
2024-02-17T02:08:15.884Z,10.38
2024-02-17T02:11:06.179Z,10.70
2024-02-17T02:13:38.425Z,10.43
2024-02-17T02:16:10.247Z,10.15
2024-02-17T02:18:41.796Z,10.40
2024-02-17T02:21:12.605Z,9.98
2024-02-17T02:27:15.435Z,9.65
2024-02-17T02:29:47.151Z,10.13
2024-02-17T02:32:15.597Z,9.80
2024-02-17T02:34:44.977Z,8.85
2024-02-17T02:37:13.787Z,10.50
2024-02-17T02:39:42.512Z,9.90
2024-02-17T02:42:15.170Z,9.25
2024-02-17T02:44:43.835Z,10.65
2024-02-17T02:47:13.027Z,9.82
2024-02-17T02:49:41.823Z,8.95
2024-02-17T02:52:10.689Z,9.40
2024-02-17T02:54:39.317Z,9.93
2024-02-17T02:57:07.949Z,10.10
2024-02-17T02:59:38.032Z,9.45
2024-02-17T03:02:07.400Z,9.20
2024-02-17T03:04:36.595Z,9.48
2024-02-17T03:07:14.336Z,10.00
2024-02-17T03:09:43.123Z,9.32
2024-02-17T03:12:11.796Z,9.27
2024-02-17T03:14:43.509Z,9.48
2024-02-17T03:17:12.522Z,9.32
2024-02-17T03:19:43.932Z,9.40
2024-02-17T03:22:12.306Z,9.60
2024-02-17T03:24:40.710Z,7.65
2024-02-17T03:27:09.762Z,9.00
2024-02-17T03:29:38.274Z,8.10
2024-02-17T03:32:09.628Z,8.52
2024-02-17T03:34:40.756Z,8.43
2024-02-17T03:37:09.910Z,9.23
2024-02-17T03:39:39.429Z,9.05
2024-02-17T03:42:10.408Z,8.77
2024-02-17T03:44:38.993Z,8.82
2024-02-17T03:47:11.223Z,8.40
2024-02-17T03:49:40.335Z,8.35
2024-02-17T03:52:09.708Z,8.80
2024-02-17T03:54:40.186Z,8.57
2024-02-17T03:57:09.057Z,8.77
2024-02-17T03:59:38.197Z,8.95
2024-02-17T04:02:08.633Z,8.10
2024-02-17T04:04:37.345Z,9.40
2024-02-17T04:13:19.571Z,9.05
2024-02-17T04:15:48.171Z,9.98
2024-02-17T04:18:18.072Z,10.05
2024-02-17T04:20:47.822Z,10.07
2024-02-17T04:23:16.700Z,10.48
2024-02-17T04:25:45.187Z,10.52
2024-02-17T05:39:26.404Z,11.43
2024-02-17T05:42:08.073Z,10.18
2024-02-17T05:44:37.142Z,10.65
2024-02-17T05:52:27.947Z,11.00
2024-02-17T05:54:56.538Z,11.75
2024-02-17T06:37:45.408Z,11.27
2024-02-17T07:15:24.438Z,12.23
2024-02-17T07:37:22.234Z,12.60
2024-02-17T07:40:26.637Z,11.48
2024-02-17T07:42:55.573Z,12.32
2024-02-17T07:45:31.504Z,11.40
2024-02-17T07:51:11.495Z,12.43
2024-02-17T08:00:30.462Z,12.15
2024-02-17T08:03:50.767Z,11.63
2024-02-17T08:06:38.503Z,11.68
2024-02-17T08:09:17.350Z,11.40
2024-02-17T08:12:17.402Z,12.15
2024-02-17T08:20:17.916Z,12.52
2024-02-17T08:23:08.366Z,9.90
2024-02-17T08:25:38.807Z,11.82
2024-02-17T08:28:08.913Z,11.50
2024-02-17T08:30:51.698Z,12.43
2024-02-17T08:33:21.197Z,11.40
2024-02-17T08:36:20.890Z,11.65
2024-02-17T08:39:00.131Z,12.18
2024-02-17T08:44:34.564Z,12.30
2024-02-17T08:45:02.157Z,11.30
2024-02-17T08:47:36.089Z,11.80
2024-02-17T08:50:26.069Z,11.68
2024-02-17T08:53:28.138Z,12.15
2024-02-17T08:56:30.347Z,12.55
2024-02-17T08:59:06.032Z,11.38
2024-02-17T09:02:12.631Z,12.40
2024-02-17T09:04:51.103Z,12.35
2024-02-17T09:07:35.112Z,11.90
2024-02-17T09:10:04.577Z,11.88
2024-02-17T09:12:34.508Z,11.88
2024-02-17T09:15:06.723Z,11.80
2024-02-17T09:17:37.273Z,11.45
2024-02-17T09:20:11.352Z,11.88
2024-02-17T09:22:44.957Z,12.20
2024-02-17T09:25:13.440Z,12.60
2024-02-17T09:27:50.006Z,11.82
2024-02-17T09:31:13.096Z,11.63
2024-02-17T09:39:50.377Z,10.18
2024-02-17T11:04:40.191Z,12.20
2024-02-17T11:07:55.073Z,12.70
2024-02-17T11:15:45.556Z,12.27
2024-02-17T11:22:34.590Z,11.93
2024-02-17T11:26:44.237Z,12.93
2024-02-17T11:30:40.428Z,12.63
2024-02-17T11:34:26.084Z,11.38
2024-02-17T11:37:53.931Z,12.50
2024-02-17T11:41:03.635Z,12.20
2024-02-17T11:52:27.015Z,12.55
2024-02-17T12:01:11.532Z,11.95
2024-02-17T12:10:51.373Z,12.82
2024-02-17T12:13:27.698Z,13.07
2024-02-17T12:20:34.195Z,12.20
2024-02-17T12:23:41.413Z,11.55
2024-02-17T12:34:10.695Z,11.10
2024-02-17T12:41:26.772Z,10.43
2024-02-17T12:43:57.410Z,11.57
2024-02-17T12:46:30.391Z,11.02
2024-02-17T12:49:00.545Z,11.30
2024-02-17T12:51:38.726Z,10.70
2024-02-17T12:54:11.613Z,11.18
2024-02-17T12:56:40.416Z,10.50
2024-02-17T12:59:12.885Z,11.77
2024-02-17T13:01:41.818Z,9.75
2024-02-17T13:04:10.780Z,10.07
2024-02-17T13:06:41.214Z,10.23
2024-02-17T13:09:10.345Z,11.07
2024-02-17T13:11:43.953Z,10.45
2024-02-17T13:14:13.907Z,10.55
2024-02-17T13:16:42.640Z,9.55
2024-02-17T13:19:11.676Z,10.40
2024-02-17T13:25:27.437Z,9.65
2024-02-17T13:27:56.792Z,9.27
2024-02-17T13:39:54.944Z,10.57
2024-02-17T13:42:23.811Z,9.80
2024-02-17T13:44:52.533Z,11.05
2024-02-17T13:47:21.216Z,8.98
2024-02-17T13:49:50.062Z,9.20
2024-02-17T13:52:21.831Z,8.93
2024-02-17T13:54:50.802Z,9.60
2024-02-17T13:58:11.736Z,9.63
2024-02-17T14:01:08.068Z,9.50
2024-02-17T14:04:10.017Z,10.00
2024-02-17T14:06:38.835Z,8.63
2024-02-17T14:09:59.236Z,8.70
2024-02-17T14:13:00.474Z,9.43
2024-02-17T14:15:35.149Z,9.25
2024-02-17T14:18:12.127Z,9.10
2024-02-17T14:20:50.748Z,9.52
2024-02-17T14:23:19.802Z,8.85
2024-02-17T14:25:52.152Z,8.40
2024-02-17T14:28:26.891Z,9.00
2024-02-17T14:30:59.749Z,8.23
2024-02-17T14:33:38.851Z,8.95
2024-02-17T14:36:20.679Z,8.38
2024-02-17T14:38:51.727Z,8.85
2024-02-17T14:41:24.034Z,8.95
2024-02-17T14:43:55.979Z,8.10
2024-02-17T14:46:35.756Z,7.75
2024-02-17T14:49:05.826Z,9.93
2024-02-17T14:51:38.590Z,8.07
2024-02-17T14:54:12.578Z,9.93
2024-02-17T14:56:45.698Z,9.07
2024-02-17T14:59:14.694Z,9.35
2024-02-17T15:02:07.383Z,9.23
2024-02-17T15:04:43.046Z,11.02
2024-02-17T15:07:11.981Z,10.82
2024-02-17T15:09:44.191Z,12.18
2024-02-17T15:12:13.257Z,11.35
2024-02-17T15:14:44.045Z,11.52
2024-02-17T15:17:17.405Z,12.27
2024-02-17T15:19:51.910Z,12.60
2024-02-17T15:22:21.095Z,11.07
2024-02-17T15:24:50.093Z,12.38
2024-02-17T15:27:20.072Z,12.38
2024-02-17T15:29:50.800Z,10.88
2024-02-17T15:32:36.999Z,11.95
2024-02-17T15:35:10.271Z,11.13
2024-02-17T15:37:39.210Z,10.68
2024-02-17T15:40:10.963Z,9.65
2024-02-17T15:42:42.680Z,11.95
2024-02-17T15:45:12.272Z,12.27
2024-02-17T15:47:43.945Z,11.55
2024-02-17T15:50:15.318Z,11.63
2024-02-17T15:52:43.970Z,11.32
2024-02-17T15:55:12.926Z,12.32
2024-02-17T15:57:41.783Z,12.05
2024-02-17T16:00:12.273Z,11.75
2024-02-17T16:02:42.714Z,11.45
2024-02-17T16:05:16.644Z,12.18
2024-02-17T16:07:48.865Z,11.93
2024-02-17T16:10:20.293Z,11.98
2024-02-17T16:12:50.428Z,13.30
2024-02-17T16:15:22.426Z,13.02
2024-02-17T16:17:57.137Z,12.38
2024-02-17T16:20:26.268Z,12.43
2024-02-17T16:22:58.079Z,13.00
2024-02-17T16:25:26.844Z,12.95
2024-02-17T16:28:05.441Z,13.07
2024-02-17T16:34:16.247Z,12.23
2024-02-17T16:36:47.922Z,12.52
2024-02-17T16:39:17.189Z,12.50
2024-02-17T16:41:51.681Z,12.60
2024-02-17T16:44:23.282Z,12.93
2024-02-17T16:46:57.011Z,12.88
2024-02-17T16:49:27.096Z,13.25
2024-02-17T16:51:55.628Z,13.35
2024-02-17T16:54:24.244Z,14.88
2024-02-17T16:56:53.840Z,13.23
2024-02-17T16:59:22.438Z,14.10
2024-02-17T17:01:50.991Z,12.98
2024-02-17T17:04:19.784Z,12.30
2024-02-17T17:06:50.104Z,13.27
2024-02-17T17:09:18.804Z,12.40
2024-02-17T17:11:47.442Z,12.38
2024-02-17T17:16:48.551Z,11.82
2024-02-17T17:19:16.967Z,12.65
2024-02-17T17:21:45.568Z,12.80
2024-02-17T17:24:15.412Z,12.15
2024-02-17T17:26:50.191Z,12.50
2024-02-17T17:29:19.491Z,12.10
2024-02-17T17:31:48.830Z,12.73
2024-02-17T17:34:18.303Z,12.73
2024-02-17T17:36:47.839Z,11.75
2024-02-17T17:39:18.068Z,12.43
2024-02-17T17:41:46.605Z,12.52
2024-02-17T17:44:18.083Z,12.60
2024-02-17T17:46:50.760Z,13.13
2024-02-17T17:49:19.151Z,11.80
2024-02-17T17:51:47.908Z,13.02
2024-02-17T17:54:17.989Z,12.32
2024-02-17T17:56:46.372Z,13.27
2024-02-17T17:59:16.836Z,12.73
2024-02-17T18:01:45.225Z,12.18
2024-02-17T18:04:13.655Z,13.20
2024-02-17T18:06:42.699Z,12.20
2024-02-17T18:09:11.386Z,12.68
2024-02-17T18:11:43.828Z,12.77
2024-02-17T18:14:42.581Z,13.60
2024-02-17T18:17:34.791Z,12.95
2024-02-17T18:20:04.367Z,12.18
2024-02-17T18:22:42.702Z,13.32
2024-02-17T18:25:11.629Z,13.93
2024-02-17T18:27:41.583Z,13.38
2024-02-17T18:30:10.889Z,12.82
2024-02-17T18:32:39.238Z,13.18
2024-02-17T18:35:08.986Z,13.20
2024-02-17T18:38:13.111Z,12.90
2024-02-17T18:40:41.512Z,12.10
2024-02-17T18:43:11.511Z,12.93
2024-02-17T18:45:40.013Z,12.57
2024-02-17T18:48:09.437Z,13.23
2024-02-17T18:50:38.661Z,14.32
2024-02-17T18:53:06.986Z,13.00
2024-02-17T18:55:35.219Z,13.30
2024-02-17T18:58:03.639Z,12.85
2024-02-17T19:00:33.498Z,13.80
2024-02-17T19:03:02.045Z,12.60
2024-02-17T19:05:30.541Z,13.13
2024-02-17T19:07:58.860Z,13.38
2024-02-17T19:10:27.700Z,14.05
2024-02-17T19:12:56.317Z,14.77
2024-02-17T19:15:24.742Z,13.02
2024-02-17T19:17:55.156Z,13.63
2024-02-17T19:20:23.706Z,14.30
2024-02-17T19:22:52.299Z,13.73
2024-02-17T19:25:20.813Z,13.15
2024-02-17T19:27:49.173Z,13.57
2024-02-17T19:30:17.740Z,14.55
2024-02-17T19:32:46.069Z,13.77
2024-02-17T19:35:16.387Z,14.10
2024-02-17T19:37:44.854Z,13.35
2024-02-17T19:40:13.682Z,13.35
2024-02-17T19:42:42.044Z,13.75
2024-02-17T19:45:11.839Z,13.80
2024-02-17T19:47:40.297Z,13.98
2024-02-17T19:50:11.030Z,13.20
2024-02-17T19:52:40.838Z,15.05
2024-02-17T19:55:30.548Z,13.68
2024-02-17T19:57:59.195Z,14.35
2024-02-17T20:00:27.954Z,13.63
2024-02-17T20:02:56.431Z,14.15
2024-02-17T20:05:25.793Z,14.80
2024-02-17T20:07:55.621Z,16.27
2024-02-17T20:10:23.946Z,15.30
2024-02-17T20:12:52.719Z,15.70
2024-02-17T20:15:21.309Z,15.55
2024-02-17T20:17:49.833Z,15.20
2024-02-17T20:20:19.962Z,14.63
2024-02-17T20:22:48.574Z,16.05
2024-02-17T20:25:18.329Z,15.23
2024-02-17T20:27:46.826Z,15.95
2024-02-17T20:30:15.921Z,16.35
2024-02-17T20:32:44.529Z,14.75
2024-02-17T20:35:13.108Z,14.52
2024-02-17T20:37:41.468Z,14.32
2024-02-17T20:40:14.110Z,15.05
2024-02-17T20:42:43.884Z,14.93
2024-02-17T20:45:12.567Z,13.15
2024-02-17T20:47:45.150Z,14.02
2024-02-17T20:50:14.371Z,13.73
2024-02-17T20:52:43.164Z,13.18
2024-02-17T20:55:11.532Z,12.95
2024-02-17T20:57:40.259Z,12.75
2024-02-17T21:00:12.426Z,12.27
2024-02-17T21:02:40.723Z,12.50
2024-02-17T21:05:10.482Z,12.50
2024-02-17T21:07:38.952Z,12.13
2024-02-17T21:10:08.660Z,12.95
2024-02-17T21:12:36.996Z,13.50
2024-02-17T21:15:06.669Z,11.32
2024-02-17T21:17:36.441Z,11.70
2024-02-17T21:20:05.795Z,11.65
2024-02-17T21:22:34.524Z,11.95
2024-02-17T21:25:03.401Z,11.93
2024-02-17T21:27:31.979Z,11.07
2024-02-17T21:30:00.378Z,11.52
2024-02-17T21:32:29.149Z,11.43
2024-02-17T21:34:59.242Z,10.85
2024-02-17T21:37:27.711Z,10.55
2024-02-17T21:39:56.364Z,11.75
2024-02-17T21:42:25.340Z,10.73
2024-02-17T21:44:53.998Z,10.32
2024-02-17T21:47:22.353Z,10.75
2024-02-17T21:49:50.668Z,11.63
2024-02-17T21:52:20.588Z,10.18
2024-02-17T21:54:49.008Z,11.27
2024-02-17T21:57:17.943Z,10.52
2024-02-17T21:59:46.350Z,10.35
2024-02-17T22:02:14.785Z,9.90
2024-02-17T22:04:43.240Z,10.15
2024-02-17T22:07:11.639Z,10.10
2024-02-17T22:09:41.423Z,10.45
2024-02-17T22:12:12.374Z,9.07
2024-02-17T22:14:40.665Z,9.77
2024-02-17T22:17:08.960Z,10.23
2024-02-17T22:19:37.435Z,10.20
2024-02-17T22:22:06.631Z,10.13
2024-02-17T22:24:35.115Z,9.00
2024-02-17T22:27:05.576Z,10.73
2024-02-17T22:29:37.673Z,9.73
2024-02-17T22:32:06.938Z,9.95
2024-02-17T22:34:35.327Z,9.90
2024-02-17T22:37:03.692Z,10.23
2024-02-17T22:39:32.305Z,9.23
2024-02-17T22:42:00.648Z,9.40
2024-02-17T22:44:30.332Z,10.00
2024-02-17T22:46:58.685Z,9.35
2024-02-17T22:49:27.006Z,10.30
2024-02-17T22:51:55.627Z,9.77
2024-02-17T22:54:24.068Z,9.48
2024-02-17T22:56:52.401Z,9.98
2024-02-17T22:59:20.811Z,9.35
2024-02-17T23:01:50.627Z,9.52
2024-02-17T23:04:19.232Z,9.55
2024-02-17T23:06:48.861Z,9.52
2024-02-17T23:09:17.334Z,9.77
2024-02-17T23:11:45.955Z,9.48
2024-02-17T23:14:14.981Z,9.27
2024-02-17T23:16:44.722Z,9.07
2024-02-17T23:19:14.874Z,9.23
2024-02-17T23:21:46.467Z,9.90
2024-02-17T23:24:16.175Z,9.00
2024-02-17T23:26:45.401Z,9.02
2024-02-17T23:29:14.152Z,9.23
2024-02-17T23:31:44.123Z,8.88
2024-02-17T23:34:12.445Z,9.73
2024-02-17T23:36:42.346Z,8.93
2024-02-17T23:39:10.721Z,9.02
2024-02-17T23:41:41.764Z,8.60
2024-02-17T23:44:10.895Z,9.38
2024-02-17T23:46:39.191Z,8.10
2024-02-17T23:49:07.745Z,8.73
2024-02-17T23:51:36.520Z,8.80
2024-02-17T23:54:07.901Z,8.73
2024-02-17T23:56:37.289Z,7.90
2024-02-17T23:59:05.991Z,7.95
